»·PEaware :: SWA806 KABQ-KPHX

SWA806 :: KABQ-KPHX

FLIGHT INFORMATION

Flight Status: Arrived
Operator:
Southwest Airlines
More flights by this operator :: More flights under this callsign
Pilot: Michael C. (16705)
Aircraft: BOEING 737-800
(B738)
More flights by this aircraft type
Origin: KABQ Albuquerque Intl Sunport
United States
Destination: KPHX Phoenix Sky Harbor Intl
United States
More flights between these airports :: More routes between these airports
Route: +RDRNR3 ZUN EAGUL6
File this flight plan on PilotEdge
Remarks: PBN / A1B1C1D1L1O1S1 NAV / RNVD1E2A1 DOF / 171004 REG / N838NN RVR / 200 PER / C
Altitude:
(Current/Filed)
340ft
Speed:
(Current/Filed)
462kts
Departed: 03-Oct-17 08:12 PM
Arrived: 03-Oct-17 09:09 PM
Distance/Time
Traveled:
284nm/0:57
Distance/Time
To Go:
Arrived

Flight Plot

Page will automatically refresh every two minutes.


Map Options




Map Legend


Flown Route
Filed Route
Departure Airport
Arrival Airport
Navaid (VOR, NDB)
Fix

Horizontal Profiles

Position Reports

Time Latitude Longitude Heading Altitude Ground
Speed
03-Oct-17 19:24 35.047116 -106.617332 359 5320ft 0kts
03-Oct-17 19:25 35.047116 -106.617332 359 5320ft 0kts
03-Oct-17 19:26 35.047116 -106.617332 359 5320ft 0kts
03-Oct-17 19:27 35.047116 -106.617332 359 5320ft 0kts
03-Oct-17 19:28 35.047116 -106.617332 359 5320ft 0kts
03-Oct-17 19:29 35.047116 -106.617332 359 5320ft 0kts
03-Oct-17 19:30 35.047116 -106.617332 359 5320ft 0kts
03-Oct-17 19:31 35.047116 -106.617332 359 5320ft 0kts
03-Oct-17 19:32 35.047116 -106.617332 359 5320ft 0kts
03-Oct-17 19:33 35.047116 -106.617332 359 5320ft 0kts
03-Oct-17 19:34 35.047116 -106.617332 359 5320ft 0kts
03-Oct-17 19:35 35.047116 -106.617332 359 5320ft 0kts
03-Oct-17 19:36 35.047116 -106.617332 359 5320ft 0kts
03-Oct-17 19:37 35.047116 -106.617332 359 5320ft 0kts
03-Oct-17 19:38 35.047116 -106.617332 359 5320ft 0kts
03-Oct-17 19:39 35.047116 -106.617332 359 5320ft 0kts
03-Oct-17 19:40 35.047116 -106.617332 359 5320ft 0kts
03-Oct-17 19:47 35.047116 -106.617332 359 5320ft 0kts
03-Oct-17 19:48 35.047116 -106.617332 359 5320ft 0kts
03-Oct-17 19:49 35.047116 -106.617332 359 5320ft 0kts
03-Oct-17 19:50 35.047116 -106.617332 359 5320ft 0kts
03-Oct-17 19:51 35.047116 -106.617332 359 5320ft 0kts
03-Oct-17 19:52 35.047116 -106.617332 359 5320ft 0kts
03-Oct-17 19:53 35.047116 -106.617332 359 5320ft 0kts
03-Oct-17 19:54 35.047116 -106.617332 359 5320ft 0kts
03-Oct-17 19:55 35.047116 -106.617332 359 5320ft 0kts
03-Oct-17 19:56 35.047116 -106.617332 359 5320ft 0kts
03-Oct-17 19:57 35.047116 -106.617332 359 5320ft 0kts
03-Oct-17 19:58 35.047116 -106.617332 359 5320ft 0kts
03-Oct-17 19:59 35.047116 -106.617332 359 5320ft 0kts
03-Oct-17 20:00 35.047116 -106.617332 359 5320ft 0kts
03-Oct-17 20:01 35.047116 -106.617332 359 5320ft 0kts
03-Oct-17 20:02 35.047116 -106.617332 359 5320ft 0kts
03-Oct-17 20:03 35.046998 -106.617332 359 5320ft 2kts
03-Oct-17 20:04 35.046313 -106.616971 299 5320ft 2kts
03-Oct-17 20:05 35.046218 -106.616524 270 5320ft 0kts
03-Oct-17 20:06 35.046314 -106.616755 285 5320ft 4kts
03-Oct-17 20:07 35.046326 -106.616865 274 5320ft 0kts
03-Oct-17 20:08 35.046326 -106.616866 274 5320ft 0kts
03-Oct-17 20:09 35.046065 -106.617741 264 5320ft 7kts
03-Oct-17 20:10 35.045947 -106.621162 221 5320ft 6kts
03-Oct-17 20:11 35.045182 -106.621294 175 5320ft 2kts
03-Oct-17 20:12 35.045137 -106.621290 175 5320ft 0kts
03-Oct-17 20:13 35.045136 -106.621290 175 5320ft 0kts
03-Oct-17 20:14 35.045134 -106.621290 175 5320ft 0kts
03-Oct-17 20:15 35.044374 -106.620960 100 5320ft 4kts
03-Oct-17 20:16 35.044152 -106.597739 92 5323ft 169kts
03-Oct-17 20:17 35.050021 -106.535784 51 7570ft 216kts
03-Oct-17 20:18 35.106979 -106.550677 284 9038ft 272kts
03-Oct-17 20:19 35.090943 -106.638705 262 11871ft 280kts
03-Oct-17 20:20 35.091362 -106.735456 266 14756ft 299kts
03-Oct-17 20:21 35.104919 -106.848833 276 16074ft 373kts
03-Oct-17 20:22 35.097195 -106.974592 253 18598ft 376kts
03-Oct-17 20:23 35.071499 -107.100220 253 20641ft 385kts
03-Oct-17 20:24 35.045300 -107.229078 252 22704ft 395kts
03-Oct-17 20:25 35.034210 -107.364701 263 24491ft 409kts
03-Oct-17 20:26 35.029746 -107.504567 263 26179ft 414kts
03-Oct-17 20:27 35.024932 -107.645825 262 27657ft 420kts
03-Oct-17 20:28 35.020315 -107.788887 262 28960ft 425kts
03-Oct-17 20:29 35.015437 -107.932391 262 30671ft 418kts
03-Oct-17 20:30 35.011255 -108.049162 262 32175ft 409kts
03-Oct-17 20:31 35.005311 -108.208806 261 34126ft 400kts
03-Oct-17 20:32 35.000065 -108.345097 261 34228ft 398kts
03-Oct-17 20:33 34.994727 -108.479756 261 34215ft 398kts
03-Oct-17 20:34 34.990144 -108.592484 261 34204ft 398kts
03-Oct-17 20:35 34.983567 -108.749890 261 34193ft 399kts
03-Oct-17 20:36 34.978005 -108.885100 261 34178ft 399kts
03-Oct-17 20:37 34.971911 -109.020620 261 34172ft 399kts
03-Oct-17 20:38 34.960335 -109.154343 249 34153ft 392kts
03-Oct-17 20:39 34.927441 -109.257031 243 34141ft 390kts
03-Oct-17 20:40 34.884133 -109.378512 243 34139ft 390kts
03-Oct-17 20:41 34.840069 -109.498921 243 34148ft 390kts
03-Oct-17 20:42 34.795713 -109.619273 243 34149ft 390kts
03-Oct-17 20:43 34.751147 -109.740084 243 34155ft 391kts
03-Oct-17 20:44 34.706458 -109.860422 243 34164ft 391kts
03-Oct-17 20:45 34.661549 -109.980832 243 34173ft 390kts
03-Oct-17 20:46 34.616938 -110.100604 243 34198ft 390kts
03-Oct-17 20:47 34.572267 -110.220353 243 34199ft 390kts
03-Oct-17 20:48 34.527206 -110.339913 242 33871ft 382kts
03-Oct-17 20:49 34.484347 -110.453375 242 32958ft 377kts
03-Oct-17 20:50 34.440656 -110.568995 242 31525ft 372kts
03-Oct-17 20:51 34.397716 -110.683416 242 30515ft 372kts
03-Oct-17 20:52 34.355204 -110.796978 242 29515ft 368kts
03-Oct-17 20:53 34.316875 -110.911725 253 28392ft 369kts
03-Oct-17 20:54 34.241495 -110.980879 201 26317ft 359kts
03-Oct-17 20:55 34.159593 -111.040449 227 23748ft 342kts
03-Oct-17 20:56 34.099900 -111.125100 225 21559ft 323kts
03-Oct-17 20:57 34.039078 -111.202230 225 19278ft 311kts
03-Oct-17 20:58 33.978959 -111.278840 225 16536ft 313kts
03-Oct-17 20:59 33.921114 -111.352639 225 14689ft 292kts
03-Oct-17 21:00 33.864335 -111.419099 215 12888ft 279kts
03-Oct-17 21:01 33.804277 -111.470076 214 11997ft 243kts
03-Oct-17 21:02 33.748394 -111.518087 213 10273ft 249kts
03-Oct-17 21:03 33.693427 -111.565234 213 8893ft 234kts
03-Oct-17 21:04 33.641075 -111.610016 213 8090ft 217kts
03-Oct-17 21:05 33.593451 -111.649880 213 7208ft 206kts
03-Oct-17 21:06 33.546005 -111.689707 213 6032ft 208kts
03-Oct-17 21:07 33.499797 -111.728693 213 5274ft 200kts
03-Oct-17 21:08 33.461003 -111.770362 234 4377ft 180kts
03-Oct-17 21:09 33.432818 -111.818271 236 3968ft 177kts
03-Oct-17 21:10 33.428761 -111.879762 266 3120ft 172kts
03-Oct-17 21:11 33.428800 -111.930099 266 2301ft 138kts
03-Oct-17 21:12 33.428829 -111.976953 268 1557ft 141kts
03-Oct-17 21:13 33.428732 -112.015006 267 1143ft 30kts
03-Oct-17 21:14 33.429601 -112.016647 0 1143ft 0kts
03-Oct-17 21:15 33.429621 -112.016647 0 1143ft 0kts
03-Oct-17 21:16 33.429623 -112.016647 0 1143ft 0kts
03-Oct-17 21:17 33.429643 -112.016646 0 1143ft 0kts
03-Oct-17 21:18 33.429645 -112.016646 0 1143ft 0kts
03-Oct-17 21:19 33.431946 -112.015613 33 1143ft 11kts
03-Oct-17 21:20 33.432823 -112.011296 90 1143ft 17kts
03-Oct-17 21:21 33.432824 -112.004792 90 1143ft 21kts
03-Oct-17 21:22 33.433506 -112.000576 4 1143ft 7kts
03-Oct-17 21:23 33.434290 -111.999892 94 1143ft 0kts
03-Oct-17 21:24 33.434290 -111.999892 94 1143ft 0kts

Navigation Log

Ident Type
1. KABQ Airport
2. ZUN Navaid
3. DOJOE Fix
4. SLIDR Fix
5. PAYSO Fix
6. EAGUL Fix
7. PICHR Fix
8. HOMRR Fix
9. QUENY Fix
10. HINEY Fix
11. BASBL Fix
12. KPHX Airport